createdAt,value
2022-08-09T00:00:00.909Z,15.23
2022-08-09T00:02:32.032Z,15.29
2022-08-09T00:05:03.337Z,14.95
2022-08-09T00:07:45.272Z,15.02
2022-08-09T00:10:17.909Z,15.12
2022-08-09T00:12:47.596Z,14.98
2022-08-09T00:15:18.834Z,15.01
2022-08-09T00:18:06.092Z,15.09
2022-08-09T00:20:31.643Z,15.10
2022-08-09T00:23:08.474Z,14.89
2022-08-09T00:25:46.760Z,14.78
2022-08-09T00:28:19.264Z,14.96
2022-08-09T00:30:49.141Z,14.99
2022-08-09T00:33:15.508Z,15.04
2022-08-09T00:35:42.880Z,14.86
2022-08-09T00:38:12.652Z,14.73
2022-08-09T00:40:39.583Z,14.73
2022-08-09T00:44:19.577Z,14.53
2022-08-09T00:46:06.961Z,14.32
2022-08-09T00:48:33.980Z,14.41
2022-08-09T00:51:10.397Z,14.58
2022-08-09T00:53:39.732Z,14.19
2022-08-09T00:56:09.704Z,14.38
2022-08-09T00:58:36.783Z,14.03
2022-08-09T01:01:07.697Z,14.18
2022-08-09T01:04:08.207Z,14.16
2022-08-09T01:06:54.263Z,14.01
2022-08-09T01:09:39.683Z,13.98
2022-08-09T01:12:12.919Z,14.15
2022-08-09T01:14:51.719Z,13.97
2022-08-09T01:17:23.419Z,14.05
2022-08-09T01:20:10.400Z,14.04
2022-08-09T01:22:57.194Z,14.13
2022-08-09T01:25:33.397Z,14.18
2022-08-09T01:28:09.322Z,14.04
2022-08-09T01:30:51.709Z,13.96
2022-08-09T01:33:22.088Z,13.99
2022-08-09T01:35:51.688Z,13.71
2022-08-09T01:38:19.609Z,13.64
2022-08-09T01:41:03.078Z,13.62
2022-08-09T01:43:32.437Z,13.69
2022-08-09T01:46:24.938Z,13.57
2022-08-09T01:48:55.178Z,13.48
2022-08-09T01:51:22.753Z,13.49
2022-08-09T01:53:49.976Z,13.54
2022-08-09T01:56:21.216Z,13.38
2022-08-09T01:58:48.858Z,13.60
2022-08-09T02:01:18.096Z,13.53
2022-08-09T02:03:45.863Z,13.64
2022-08-09T02:06:14.761Z,13.53
2022-08-09T02:08:58.540Z,13.68
2022-08-09T02:11:42.599Z,13.65
2022-08-09T02:14:10.730Z,13.77
2022-08-09T02:16:53.157Z,13.69
2022-08-09T02:19:35.024Z,13.68
2022-08-09T02:22:10.675Z,13.78
2022-08-09T02:24:38.006Z,13.40
2022-08-09T02:27:07.268Z,13.68
2022-08-09T02:29:37.826Z,13.63
2022-08-09T02:32:05.198Z,13.54
2022-08-09T02:34:40.376Z,13.52
2022-08-09T02:37:11.969Z,13.61
2022-08-09T02:39:42.558Z,13.53
2022-08-09T02:42:16.599Z,13.55
2022-08-09T02:44:52.570Z,13.50
2022-08-09T02:47:21.166Z,13.32
2022-08-09T02:49:55.420Z,12.98
2022-08-09T02:52:31.923Z,12.92
2022-08-09T02:55:03.062Z,13.17
2022-08-09T02:57:30.177Z,13.32
2022-08-09T03:00:25.760Z,13.04
2022-08-09T03:02:59.733Z,13.01
2022-08-09T03:05:28.069Z,13.03
2022-08-09T03:07:55.619Z,13.04
2022-08-09T03:10:22.874Z,12.95
2022-08-09T03:12:51.948Z,13.04
2022-08-09T03:15:20.557Z,13.00
2022-08-09T03:17:57.765Z,12.73
2022-08-09T03:20:26.161Z,12.81
2022-08-09T03:22:58.446Z,12.73
2022-08-09T03:25:57.845Z,12.72
2022-08-09T03:28:19.784Z,12.83
2022-08-09T03:30:48.955Z,12.82
2022-08-09T03:33:19.163Z,12.72
2022-08-09T03:36:13.092Z,12.50
2022-08-09T03:38:34.410Z,12.78
2022-08-09T03:41:00.804Z,12.72
2022-08-09T03:43:32.073Z,12.82
2022-08-09T03:46:05.197Z,13.01
2022-08-09T03:48:51.170Z,12.95
2022-08-09T03:51:56.535Z,12.89
2022-08-09T03:54:04.613Z,12.83
2022-08-09T03:56:31.281Z,12.62
2022-08-09T03:58:57.781Z,12.70
2022-08-09T04:01:24.914Z,12.55
2022-08-09T04:04:02.074Z,12.67
2022-08-09T04:06:31.443Z,12.64
2022-08-09T04:08:57.891Z,12.65
2022-08-09T04:11:25.003Z,12.71
2022-08-09T04:14:52.862Z,12.68
2022-08-09T04:16:38.871Z,12.62
2022-08-09T04:19:05.292Z,12.69
2022-08-09T04:21:40.150Z,12.63
2022-08-09T04:24:07.807Z,12.46
2022-08-09T04:26:35.123Z,12.63
2022-08-09T04:29:10.901Z,12.64
2022-08-09T04:31:47.352Z,12.99
2022-08-09T04:34:14.011Z,13.08
2022-08-09T04:36:50.232Z,12.99
2022-08-09T04:39:16.956Z,13.05
2022-08-09T04:41:44.150Z,13.21
2022-08-09T04:44:14.461Z,13.44
2022-08-09T04:46:58.433Z,13.69
2022-08-09T04:49:53.792Z,13.73
2022-08-09T04:52:26.359Z,13.82
2022-08-09T04:54:53.523Z,13.91
2022-08-09T04:57:24.063Z,14.09
2022-08-09T04:59:51.297Z,14.02
2022-08-09T05:02:18.646Z,14.23
2022-08-09T05:04:45.174Z,14.65
2022-08-09T05:07:19.020Z,14.68
2022-08-09T05:09:49.868Z,14.79
2022-08-09T05:12:16.842Z,15.04
2022-08-09T05:14:43.305Z,15.25
2022-08-09T05:17:15.408Z,15.48
2022-08-09T05:19:57.011Z,15.68
2022-08-09T05:22:35.819Z,15.95
2022-08-09T05:25:10.271Z,16.22
2022-08-09T05:27:45.385Z,16.37
2022-08-09T05:30:13.865Z,16.60
2022-08-09T05:32:43.538Z,17.00
2022-08-09T05:35:10.260Z,17.28
2022-08-09T05:37:38.252Z,17.34
2022-08-09T05:40:14.612Z,17.54
2022-08-09T05:42:43.007Z,17.77
2022-08-09T05:45:10.559Z,18.12
2022-08-09T05:47:51.478Z,18.36
2022-08-09T05:50:26.650Z,18.45
2022-08-09T05:53:02.882Z,18.50
2022-08-09T05:55:31.302Z,18.61
2022-08-09T05:58:00.416Z,18.57
2022-08-09T06:00:28.839Z,18.55
2022-08-09T06:02:57.050Z,18.56
2022-08-09T06:05:30.915Z,18.62
2022-08-09T06:08:11.389Z,18.77
2022-08-09T06:10:38.180Z,18.89
2022-08-09T06:13:18.641Z,18.90
2022-08-09T06:15:46.942Z,18.92
2022-08-09T06:18:13.743Z,18.97
2022-08-09T06:20:42.467Z,19.15
2022-08-09T06:23:12.042Z,19.30
2022-08-09T06:25:43.311Z,19.37
2022-08-09T06:28:10.221Z,19.41
2022-08-09T06:30:40.182Z,19.45
2022-08-09T06:33:30.115Z,19.51
2022-08-09T06:35:58.268Z,19.55
2022-08-09T06:38:36.371Z,19.61
2022-08-09T06:41:04.419Z,19.68
2022-08-09T06:43:34.074Z,19.78
2022-08-09T06:46:07.629Z,19.85
2022-08-09T06:48:36.954Z,19.97
2022-08-09T06:51:09.380Z,20.11
2022-08-09T06:53:38.451Z,20.17
2022-08-09T06:56:05.692Z,20.32
2022-08-09T07:00:46.372Z,20.46
2022-08-09T07:01:18.783Z,20.55
2022-08-09T07:03:53.231Z,20.63
2022-08-09T07:06:21.051Z,20.76
2022-08-09T07:08:49.712Z,20.79
2022-08-09T07:11:23.636Z,20.94
2022-08-09T07:14:04.516Z,21.53
2022-08-09T07:16:41.613Z,21.60
2022-08-09T07:19:15.545Z,21.70
2022-08-09T07:21:57.462Z,21.58
2022-08-09T07:24:32.287Z,21.55
2022-08-09T07:27:11.011Z,21.75
2022-08-09T07:29:53.901Z,21.87
2022-08-09T07:32:23.580Z,21.80
2022-08-09T07:34:58.992Z,21.99
2022-08-09T07:37:25.633Z,21.90
2022-08-09T07:39:53.400Z,22.12
2022-08-09T07:42:23.989Z,22.59
2022-08-09T07:45:02.429Z,23.33
2022-08-09T07:47:49.426Z,23.32
2022-08-09T07:50:34.610Z,23.33
2022-08-09T07:53:04.671Z,23.32
2022-08-09T07:56:03.634Z,23.57
2022-08-09T07:58:17.867Z,23.81
2022-08-09T08:00:55.719Z,24.01
2022-08-09T08:03:26.796Z,24.88
2022-08-09T08:05:57.663Z,25.34
2022-08-09T08:09:00.348Z,25.28
2022-08-09T08:12:08.772Z,25.57
2022-08-09T08:13:57.741Z,25.39
2022-08-09T08:16:31.287Z,25.73
2022-08-09T08:18:58.409Z,25.41
2022-08-09T08:21:25.077Z,25.51
2022-08-09T08:23:56.000Z,25.43
2022-08-09T08:26:26.323Z,25.53
2022-08-09T08:28:53.306Z,25.59
2022-08-09T08:31:19.705Z,25.62
2022-08-09T08:33:53.925Z,25.81
2022-08-09T08:36:28.380Z,25.94
2022-08-09T08:38:56.407Z,25.63
2022-08-09T08:41:23.365Z,25.94
2022-08-09T08:43:50.036Z,26.05
2022-08-09T08:46:32.884Z,26.33
2022-08-09T08:49:01.970Z,26.32
2022-08-09T08:51:38.883Z,26.03
2022-08-09T08:54:10.142Z,26.72
2022-08-09T08:56:37.583Z,26.37
2022-08-09T08:59:19.713Z,26.83
2022-08-09T09:01:52.166Z,26.76
2022-08-09T09:04:26.681Z,26.98
2022-08-09T09:06:55.577Z,26.37
2022-08-09T09:09:50.273Z,27.11
2022-08-09T09:12:16.694Z,27.09
2022-08-09T09:14:44.357Z,26.94
2022-08-09T09:17:13.059Z,26.66
2022-08-09T09:19:43.255Z,27.13
2022-08-09T09:22:11.868Z,26.84
2022-08-09T09:24:43.339Z,26.46
2022-08-09T09:28:03.883Z,27.24
2022-08-09T09:30:10.552Z,26.38
2022-08-09T09:32:38.589Z,26.83
2022-08-09T09:35:09.828Z,27.10
2022-08-09T09:37:37.493Z,27.63
2022-08-09T09:40:07.555Z,28.03
2022-08-09T09:42:35.332Z,27.41
2022-08-09T09:45:03.715Z,27.29
2022-08-09T09:47:30.399Z,27.72
2022-08-09T09:50:15.446Z,27.78
2022-08-09T09:52:54.632Z,28.12
2022-08-09T09:55:28.708Z,27.24
2022-08-09T09:58:02.347Z,27.42
2022-08-09T10:00:31.578Z,27.92
2022-08-09T10:02:59.311Z,28.06
2022-08-09T10:05:27.077Z,28.31
2022-08-09T10:08:27.218Z,28.78
2022-08-09T10:10:54.837Z,28.93
2022-08-09T10:13:24.651Z,27.75
2022-08-09T10:16:55.556Z,26.62
2022-08-09T10:18:56.073Z,26.48
2022-08-09T10:21:26.729Z,26.27
2022-08-09T10:23:53.757Z,26.34
2022-08-09T10:26:21.509Z,26.14
2022-08-09T10:29:13.647Z,26.48
2022-08-09T10:34:32.621Z,26.18
2022-08-09T10:37:00.453Z,26.06
2022-08-09T10:39:28.689Z,25.65
2022-08-09T10:41:55.205Z,25.77
2022-08-09T10:44:22.916Z,25.82
2022-08-09T10:47:20.305Z,26.10
2022-08-09T10:49:54.248Z,25.95
2022-08-09T10:52:20.872Z,25.53
2022-08-09T10:54:48.912Z,25.88
2022-08-09T10:57:16.778Z,26.05
2022-08-09T10:59:55.682Z,25.96
2022-08-09T11:03:13.710Z,26.39
2022-08-09T11:05:30.047Z,25.98
2022-08-09T11:07:59.452Z,26.03
2022-08-09T11:10:54.530Z,26.67
2022-08-09T11:13:51.255Z,26.29
2022-08-09T11:16:34.980Z,26.23
2022-08-09T11:19:02.354Z,26.52
2022-08-09T11:21:57.240Z,26.64
2022-08-09T11:24:55.667Z,26.76
2022-08-09T11:28:04.750Z,26.63
2022-08-09T11:30:33.605Z,27.35
2022-08-09T11:33:03.916Z,27.68
2022-08-09T11:35:34.989Z,27.75
2022-08-09T11:38:13.743Z,27.89
2022-08-09T11:40:41.351Z,27.21
2022-08-09T11:43:14.694Z,27.67
2022-08-09T11:45:43.732Z,27.69
2022-08-09T11:48:26.033Z,28.48
2022-08-09T11:52:48.690Z,28.56
2022-08-09T11:54:12.741Z,28.47
2022-08-09T11:56:42.274Z,28.46
2022-08-09T11:59:24.746Z,27.91
2022-08-09T12:02:17.473Z,27.85
2022-08-09T12:04:43.476Z,28.25
2022-08-09T12:07:10.893Z,27.88
2022-08-09T12:09:50.622Z,27.59
2022-08-09T12:12:28.825Z,27.25
2022-08-09T12:15:07.465Z,26.95
2022-08-09T12:17:43.519Z,26.85
2022-08-09T12:20:16.633Z,26.94
2022-08-09T12:22:50.101Z,26.51
2022-08-09T12:25:18.215Z,26.58
2022-08-09T12:28:59.954Z,26.42
2022-08-09T12:30:58.151Z,26.42
2022-08-09T12:33:26.462Z,26.08
2022-08-09T12:36:27.662Z,26.34
2022-08-09T12:38:59.357Z,26.29
2022-08-09T12:41:33.685Z,27.07
2022-08-09T12:44:10.317Z,27.61
2022-08-09T12:46:40.373Z,28.00
2022-08-09T12:49:08.812Z,28.54
2022-08-09T12:52:00.866Z,27.93
2022-08-09T12:54:21.895Z,28.19
2022-08-09T12:56:54.350Z,27.52
2022-08-09T12:59:23.073Z,27.11
2022-08-09T13:01:58.239Z,26.89
2022-08-09T13:04:37.174Z,27.24
2022-08-09T13:07:19.984Z,27.59
2022-08-09T13:10:02.815Z,27.36
2022-08-09T13:12:29.510Z,27.02
2022-08-09T13:15:04.721Z,26.67
2022-08-09T13:18:02.605Z,26.43
2022-08-09T13:21:04.174Z,26.65
2022-08-09T13:24:15.766Z,26.91
2022-08-09T13:26:37.001Z,26.52
2022-08-09T13:29:07.993Z,26.16
2022-08-09T13:31:53.979Z,26.38
2022-08-09T13:34:40.790Z,25.98
2022-08-09T13:37:11.951Z,26.13
2022-08-09T13:41:46.925Z,26.32
2022-08-09T13:42:26.842Z,26.60
2022-08-09T13:44:53.535Z,26.66
2022-08-09T13:47:31.541Z,26.35
2022-08-09T13:50:12.490Z,26.34
2022-08-09T13:52:44.993Z,26.45
2022-08-09T13:55:14.043Z,26.58
2022-08-09T13:57:42.074Z,26.69
2022-08-09T14:00:12.241Z,26.65
2022-08-09T14:02:42.804Z,26.76
2022-08-09T14:05:59.035Z,26.95
2022-08-09T14:08:11.549Z,26.90
2022-08-09T14:10:50.674Z,26.66
2022-08-09T14:13:21.843Z,26.90
2022-08-09T14:16:10.302Z,26.89
2022-08-09T14:18:37.515Z,27.04
2022-08-09T14:21:04.011Z,26.65
2022-08-09T14:23:39.878Z,26.47
2022-08-09T14:26:07.369Z,26.42
2022-08-09T14:28:36.460Z,26.50
2022-08-09T14:31:03.074Z,26.58
2022-08-09T14:33:30.299Z,26.53
2022-08-09T14:36:20.622Z,26.40
2022-08-09T14:38:47.549Z,26.09
2022-08-09T14:41:34.410Z,26.15
2022-08-09T14:44:05.892Z,26.12
2022-08-09T14:46:57.368Z,26.22
2022-08-09T14:49:19.574Z,26.37
2022-08-09T14:51:50.104Z,26.21
2022-08-09T14:54:16.817Z,26.16
2022-08-09T14:56:58.207Z,26.14
2022-08-09T14:59:26.981Z,26.29
2022-08-09T15:01:53.880Z,26.24
2022-08-09T15:04:20.564Z,26.18
2022-08-09T15:06:50.185Z,26.30
2022-08-09T15:09:51.981Z,26.31
2022-08-09T15:12:04.745Z,26.47
2022-08-09T15:14:34.284Z,26.60
2022-08-09T15:17:00.821Z,26.52
2022-08-09T15:19:35.930Z,26.72
2022-08-09T15:22:03.255Z,26.55
2022-08-09T15:24:29.646Z,26.66
2022-08-09T15:26:55.967Z,26.26
2022-08-09T15:30:48.517Z,26.55
2022-08-09T15:32:29.320Z,26.52
2022-08-09T15:34:59.811Z,26.51
2022-08-09T15:37:38.225Z,26.18
2022-08-09T15:40:25.309Z,26.01
2022-08-09T15:42:58.973Z,25.96
2022-08-09T15:45:29.852Z,26.00
2022-08-09T15:48:05.230Z,26.02
2022-08-09T15:50:44.018Z,26.08
2022-08-09T15:53:18.844Z,26.25
2022-08-09T15:56:21.703Z,26.40
2022-08-09T15:58:43.477Z,26.38
2022-08-09T16:01:09.883Z,26.30
2022-08-09T16:03:38.223Z,26.44
2022-08-09T16:06:05.921Z,26.34
2022-08-09T16:08:32.979Z,26.41
2022-08-09T16:11:01.374Z,26.09
2022-08-09T16:14:02.783Z,26.10
2022-08-09T16:16:18.454Z,26.40
2022-08-09T16:18:45.641Z,26.25
2022-08-09T16:21:17.017Z,26.16
2022-08-09T16:23:50.662Z,26.15
2022-08-09T16:26:35.063Z,26.14
2022-08-09T16:29:13.690Z,26.24
2022-08-09T16:32:18.708Z,26.48
2022-08-09T16:34:29.139Z,26.19
2022-08-09T16:36:55.810Z,26.38
2022-08-09T16:39:22.767Z,26.37
2022-08-09T16:42:03.222Z,26.34
2022-08-09T16:44:31.702Z,26.08
2022-08-09T16:47:04.178Z,26.05
2022-08-09T16:50:31.799Z,26.00
2022-08-09T16:52:31.286Z,25.81
2022-08-09T16:54:57.979Z,25.65
2022-08-09T16:57:24.341Z,25.63
2022-08-09T16:59:57.442Z,25.69
2022-08-09T17:02:25.603Z,25.68
2022-08-09T17:04:51.990Z,25.70
2022-08-09T17:08:43.134Z,25.80
2022-08-09T17:10:06.243Z,25.86
2022-08-09T17:12:35.631Z,25.64
2022-08-09T17:15:02.253Z,25.50
2022-08-09T17:17:50.333Z,25.49
2022-08-09T17:20:32.453Z,25.41
2022-08-09T17:23:03.929Z,25.41
2022-08-09T17:25:31.382Z,25.22
2022-08-09T17:28:04.151Z,25.24
2022-08-09T17:30:31.596Z,25.36
2022-08-09T17:33:01.405Z,25.34
2022-08-09T17:35:33.637Z,25.52
2022-08-09T17:38:10.142Z,25.41
2022-08-09T17:40:41.339Z,25.27
2022-08-09T17:43:32.638Z,25.20
2022-08-09T17:46:04.284Z,25.18
2022-08-09T17:48:38.463Z,24.87
2022-08-09T17:51:10.047Z,24.85
2022-08-09T17:53:51.933Z,24.88
2022-08-09T17:56:21.088Z,24.85
2022-08-09T17:58:47.484Z,24.77
2022-08-09T18:01:22.821Z,24.86
2022-08-09T18:03:50.350Z,24.59
2022-08-09T18:06:31.432Z,24.69
2022-08-09T18:09:04.021Z,24.71
2022-08-09T18:12:05.047Z,24.63
2022-08-09T18:14:19.334Z,24.51
2022-08-09T18:16:48.847Z,24.34
2022-08-09T18:20:53.887Z,24.28
2022-08-09T18:22:03.248Z,24.13
2022-08-09T18:24:29.723Z,23.91
2022-08-09T18:26:57.480Z,23.86
2022-08-09T18:30:34.827Z,23.75
2022-08-09T18:32:10.294Z,23.52
2022-08-09T18:34:36.697Z,23.43
2022-08-09T18:37:03.740Z,23.17
2022-08-09T18:39:32.118Z,23.04
2022-08-09T18:42:00.629Z,22.92
2022-08-09T18:44:27.296Z,22.84
2022-08-09T18:47:05.037Z,22.86
2022-08-09T18:49:43.397Z,22.72
2022-08-09T18:52:13.629Z,22.62
2022-08-09T18:54:49.655Z,22.51
2022-08-09T18:57:19.867Z,22.49
2022-08-09T18:59:55.663Z,22.36
2022-08-09T19:02:31.714Z,22.33
2022-08-09T19:05:14.412Z,22.14
2022-08-09T19:08:04.412Z,22.06
2022-08-09T19:10:37.375Z,22.10
2022-08-09T19:13:23.491Z,21.95
2022-08-09T19:15:56.414Z,21.84
2022-08-09T19:18:32.958Z,21.79
2022-08-09T19:21:01.433Z,21.75
2022-08-09T19:24:32.637Z,21.59
2022-08-09T19:26:15.496Z,21.35
2022-08-09T19:28:42.695Z,21.28
2022-08-09T19:31:15.336Z,21.32
2022-08-09T19:33:43.240Z,21.21
2022-08-09T19:36:11.715Z,21.11
2022-08-09T19:38:40.056Z,21.15
2022-08-09T19:41:07.170Z,21.22
2022-08-09T19:44:02.272Z,20.96
2022-08-09T19:46:35.542Z,20.83
2022-08-09T19:50:07.975Z,20.89
2022-08-09T19:51:57.023Z,20.66
2022-08-09T19:54:26.875Z,20.40
2022-08-09T19:56:53.932Z,20.27
2022-08-09T19:59:59.595Z,20.14
2022-08-09T20:02:18.096Z,20.06
2022-08-09T20:04:55.449Z,19.74
2022-08-09T20:07:22.470Z,19.87
2022-08-09T20:09:49.377Z,19.94
2022-08-09T20:12:27.498Z,19.93
2022-08-09T20:15:04.720Z,19.76
2022-08-09T20:17:54.458Z,19.85
2022-08-09T20:20:21.262Z,19.72
2022-08-09T20:22:48.476Z,19.86
2022-08-09T20:25:22.399Z,19.81
2022-08-09T20:27:49.062Z,19.73
2022-08-09T20:30:15.393Z,19.92
2022-08-09T20:32:45.651Z,19.74
2022-08-09T20:35:15.847Z,19.73
2022-08-09T20:38:20.350Z,19.46
2022-08-09T20:40:28.887Z,19.32
2022-08-09T20:42:59.687Z,19.54
2022-08-09T20:46:01.975Z,19.34
2022-08-09T20:48:22.428Z,19.28
2022-08-09T20:50:51.056Z,19.16
2022-08-09T20:53:36.587Z,19.02
2022-08-09T20:56:05.410Z,18.98
2022-08-09T20:58:32.600Z,18.93
2022-08-09T21:01:02.451Z,18.91
2022-08-09T21:04:07.946Z,18.89
2022-08-09T21:06:32.810Z,18.84
2022-08-09T21:09:01.443Z,18.77
2022-08-09T21:14:15.144Z,18.60
2022-08-09T21:16:43.648Z,18.41
2022-08-09T21:20:16.104Z,18.34
2022-08-09T21:21:59.024Z,18.35
2022-08-09T21:24:29.019Z,18.46
2022-08-09T21:26:59.179Z,18.32
2022-08-09T21:29:25.468Z,18.25
2022-08-09T21:31:51.790Z,18.28
2022-08-09T21:34:28.464Z,18.23
2022-08-09T21:36:56.372Z,18.10
2022-08-09T21:39:27.982Z,18.08
2022-08-09T21:42:03.439Z,18.04
2022-08-09T21:44:35.162Z,18.23
2022-08-09T21:47:02.590Z,18.21
2022-08-09T21:49:39.229Z,18.20
2022-08-09T21:52:14.847Z,18.13
2022-08-09T21:54:46.176Z,17.94
2022-08-09T21:57:36.979Z,18.01
2022-08-09T21:59:59.025Z,18.00
2022-08-09T22:02:36.308Z,17.94
2022-08-09T22:05:16.740Z,17.85
2022-08-09T22:07:52.123Z,17.64
2022-08-09T22:10:22.981Z,17.82
2022-08-09T22:12:50.227Z,17.67
2022-08-09T22:15:16.976Z,17.50
2022-08-09T22:17:46.109Z,17.33
2022-08-09T22:20:21.684Z,17.09
2022-08-09T22:22:53.796Z,17.27
2022-08-09T22:26:06.707Z,17.27
2022-08-09T22:28:06.682Z,17.43
2022-08-09T22:30:33.805Z,17.32
2022-08-09T22:33:00.121Z,17.44
2022-08-09T22:36:01.165Z,17.41
2022-08-09T22:38:14.788Z,17.19
2022-08-09T22:40:49.076Z,17.12
2022-08-09T22:44:02.997Z,17.14
2022-08-09T22:48:15.793Z,17.11
2022-08-09T22:49:01.818Z,17.06
2022-08-09T22:51:38.095Z,17.05
2022-08-09T22:54:05.256Z,17.03
2022-08-09T22:56:34.820Z,16.99
2022-08-09T22:59:06.008Z,16.82
2022-08-09T23:01:50.805Z,17.06
2022-08-09T23:04:17.209Z,16.92
2022-08-09T23:07:02.105Z,16.76
2022-08-09T23:09:28.410Z,16.56
2022-08-09T23:11:54.877Z,16.52
2022-08-09T23:14:37.691Z,16.55
2022-08-09T23:17:07.493Z,16.52
2022-08-09T23:20:06.151Z,16.54
2022-08-09T23:22:20.079Z,16.43
2022-08-09T23:24:48.586Z,16.39
2022-08-09T23:27:15.134Z,16.43
2022-08-09T23:29:41.422Z,16.39
2022-08-09T23:32:07.750Z,16.39
2022-08-09T23:34:34.049Z,16.36
2022-08-09T23:37:00.509Z,16.26
2022-08-09T23:39:26.844Z,16.27
2022-08-09T23:41:53.193Z,16.21
2022-08-09T23:44:19.492Z,16.42
2022-08-09T23:46:46.073Z,16.16
2022-08-09T23:49:24.626Z,16.05
2022-08-09T23:51:51.261Z,16.17
2022-08-09T23:54:17.816Z,15.97
2022-08-09T23:56:54.932Z,15.79
2022-08-09T23:59:23.198Z,15.90
